sensor_id;sensor_type;location;lat;lon;timestamp;P1;durP1;ratioP1;P2;durP2;ratioP2
29848;SDS011;16728;50.832;5.590;2022-11-18T00:02:15;5.80;;;1.98;;
29848;SDS011;16728;50.832;5.590;2022-11-18T00:05:17;5.50;;;2.10;;
29848;SDS011;16728;50.832;5.590;2022-11-18T00:08:19;8.75;;;2.80;;
29848;SDS011;16728;50.832;5.590;2022-11-18T00:11:22;5.50;;;1.95;;
29848;SDS011;16728;50.832;5.590;2022-11-18T00:14:45;7.57;;;2.00;;
29848;SDS011;16728;50.832;5.590;2022-11-18T00:17:47;7.97;;;2.42;;
29848;SDS011;16728;50.832;5.590;2022-11-18T00:20:49;7.28;;;1.60;;
29848;SDS011;16728;50.832;5.590;2022-11-18T00:23:50;4.10;;;1.70;;
29848;SDS011;16728;50.832;5.590;2022-11-18T00:26:53;8.52;;;3.13;;
29848;SDS011;16728;50.832;5.590;2022-11-18T00:29:56;6.65;;;1.65;;
29848;SDS011;16728;50.832;5.590;2022-11-18T00:32:58;6.53;;;1.92;;
29848;SDS011;16728;50.832;5.590;2022-11-18T00:35:59;7.22;;;1.75;;
29848;SDS011;16728;50.832;5.590;2022-11-18T00:39:01;7.82;;;1.77;;
29848;SDS011;16728;50.832;5.590;2022-11-18T00:42:03;4.45;;;1.77;;
29848;SDS011;16728;50.832;5.590;2022-11-18T00:45:24;6.28;;;2.05;;
29848;SDS011;16728;50.832;5.590;2022-11-18T00:48:25;5.70;;;1.92;;
29848;SDS011;16728;50.832;5.590;2022-11-18T00:51:28;4.97;;;1.75;;
29848;SDS011;16728;50.832;5.590;2022-11-18T00:54:30;6.35;;;1.60;;
29848;SDS011;16728;50.832;5.590;2022-11-18T00:57:32;6.93;;;2.15;;
29848;SDS011;16728;50.832;5.590;2022-11-18T01:00:33;6.78;;;1.85;;
29848;SDS011;16728;50.832;5.590;2022-11-18T01:03:35;5.32;;;1.73;;
29848;SDS011;16728;50.832;5.590;2022-11-18T01:06:37;3.67;;;1.70;;
29848;SDS011;16728;50.832;5.590;2022-11-18T01:09:39;4.30;;;1.52;;
29848;SDS011;16728;50.832;5.590;2022-11-18T01:12:41;4.93;;;1.90;;
29848;SDS011;16728;50.832;5.590;2022-11-18T01:16:02;8.27;;;2.10;;
29848;SDS011;16728;50.832;5.590;2022-11-18T01:19:04;6.47;;;1.60;;
29848;SDS011;16728;50.832;5.590;2022-11-18T01:22:05;5.72;;;2.20;;
29848;SDS011;16728;50.832;5.590;2022-11-18T01:25:07;3.40;;;1.80;;
29848;SDS011;16728;50.832;5.590;2022-11-18T01:28:09;5.90;;;1.50;;
29848;SDS011;16728;50.832;5.590;2022-11-18T01:31:13;5.30;;;1.65;;
29848;SDS011;16728;50.832;5.590;2022-11-18T01:34:17;5.10;;;1.58;;
29848;SDS011;16728;50.832;5.590;2022-11-18T01:37:20;4.68;;;1.55;;
29848;SDS011;16728;50.832;5.590;2022-11-18T01:40:21;5.13;;;1.58;;
29848;SDS011;16728;50.832;5.590;2022-11-18T01:43:23;2.78;;;1.25;;
29848;SDS011;16728;50.832;5.590;2022-11-18T01:46:27;3.83;;;1.58;;
29848;SDS011;16728;50.832;5.590;2022-11-18T01:49:30;7.60;;;1.85;;
29848;SDS011;16728;50.832;5.590;2022-11-18T01:52:32;5.05;;;1.67;;
29848;SDS011;16728;50.832;5.590;2022-11-18T01:55:35;6.38;;;1.70;;
29848;SDS011;16728;50.832;5.590;2022-11-18T02:01:45;6.75;;;1.70;;
29848;SDS011;16728;50.832;5.590;2022-11-18T02:04:48;3.03;;;1.50;;
29848;SDS011;16728;50.832;5.590;2022-11-18T02:07:52;7.00;;;1.65;;
29848;SDS011;16728;50.832;5.590;2022-11-18T02:10:53;4.95;;;1.38;;
29848;SDS011;16728;50.832;5.590;2022-11-18T02:13:56;4.82;;;1.75;;
29848;SDS011;16728;50.832;5.590;2022-11-18T02:20:45;4.40;;;1.25;;
29848;SDS011;16728;50.832;5.590;2022-11-18T02:24:00;6.40;;;1.98;;
29848;SDS011;16728;50.832;5.590;2022-11-18T02:30:47;6.93;;;1.60;;
29848;SDS011;16728;50.832;5.590;2022-11-18T02:40:17;4.40;;;1.40;;
29848;SDS011;16728;50.832;5.590;2022-11-18T02:43:43;6.18;;;1.58;;
29848;SDS011;16728;50.832;5.590;2022-11-18T02:46:51;6.68;;;1.73;;
29848;SDS011;16728;50.832;5.590;2022-11-18T02:50:00;6.65;;;1.67;;
29848;SDS011;16728;50.832;5.590;2022-11-18T02:53:06;4.65;;;1.40;;
29848;SDS011;16728;50.832;5.590;2022-11-18T02:56:11;5.72;;;1.63;;
29848;SDS011;16728;50.832;5.590;2022-11-18T02:59:18;4.65;;;1.70;;
29848;SDS011;16728;50.832;5.590;2022-11-18T03:02:20;4.20;;;1.50;;
29848;SDS011;16728;50.832;5.590;2022-11-18T03:05:31;3.40;;;1.40;;
29848;SDS011;16728;50.832;5.590;2022-11-18T03:08:41;6.63;;;1.58;;
29848;SDS011;16728;50.832;5.590;2022-11-18T03:12:12;3.88;;;1.50;;
29848;SDS011;16728;50.832;5.590;2022-11-18T03:18:41;3.60;;;1.30;;
29848;SDS011;16728;50.832;5.590;2022-11-18T03:22:06;3.03;;;1.30;;
29848;SDS011;16728;50.832;5.590;2022-11-18T03:32:21;3.13;;;1.45;;
29848;SDS011;16728;50.832;5.590;2022-11-18T03:35:28;4.60;;;1.70;;
29848;SDS011;16728;50.832;5.590;2022-11-18T03:38:35;4.57;;;1.63;;
29848;SDS011;16728;50.832;5.590;2022-11-18T03:41:45;4.95;;;1.63;;
29848;SDS011;16728;50.832;5.590;2022-11-18T03:45:10;3.67;;;1.75;;
29848;SDS011;16728;50.832;5.590;2022-11-18T03:48:26;7.20;;;2.13;;
29848;SDS011;16728;50.832;5.590;2022-11-18T03:51:32;2.28;;;1.50;;
29848;SDS011;16728;50.832;5.590;2022-11-18T03:54:49;5.10;;;1.70;;
29848;SDS011;16728;50.832;5.590;2022-11-18T04:01:12;2.88;;;1.48;;
29848;SDS011;16728;50.832;5.590;2022-11-18T04:04:18;4.38;;;1.60;;
29848;SDS011;16728;50.832;5.590;2022-11-18T04:10:33;5.63;;;1.90;;
29848;SDS011;16728;50.832;5.590;2022-11-18T04:13:46;4.97;;;1.58;;
29848;SDS011;16728;50.832;5.590;2022-11-18T04:16:49;3.47;;;1.52;;
29848;SDS011;16728;50.832;5.590;2022-11-18T04:19:53;5.93;;;1.73;;
29848;SDS011;16728;50.832;5.590;2022-11-18T04:22:55;3.58;;;1.60;;
29848;SDS011;16728;50.832;5.590;2022-11-18T04:25:57;3.45;;;1.73;;
29848;SDS011;16728;50.832;5.590;2022-11-18T04:28:59;3.05;;;1.50;;
29848;SDS011;16728;50.832;5.590;2022-11-18T04:32:01;3.88;;;2.00;;
29848;SDS011;16728;50.832;5.590;2022-11-18T04:35:03;2.85;;;1.70;;
29848;SDS011;16728;50.832;5.590;2022-11-18T04:38:06;3.97;;;1.65;;
29848;SDS011;16728;50.832;5.590;2022-11-18T04:41:08;4.18;;;2.30;;
29848;SDS011;16728;50.832;5.590;2022-11-18T04:44:10;5.07;;;2.00;;
29848;SDS011;16728;50.832;5.590;2022-11-18T04:47:13;5.72;;;2.25;;
29848;SDS011;16728;50.832;5.590;2022-11-18T04:50:15;4.85;;;2.00;;
29848;SDS011;16728;50.832;5.590;2022-11-18T04:53:17;5.10;;;2.33;;
29848;SDS011;16728;50.832;5.590;2022-11-18T04:56:19;5.15;;;2.15;;
29848;SDS011;16728;50.832;5.590;2022-11-18T04:59:22;5.75;;;2.35;;
29848;SDS011;16728;50.832;5.590;2022-11-18T05:02:26;4.57;;;2.00;;
29848;SDS011;16728;50.832;5.590;2022-11-18T05:05:27;4.50;;;2.30;;
29848;SDS011;16728;50.832;5.590;2022-11-18T05:08:30;6.75;;;2.30;;
29848;SDS011;16728;50.832;5.590;2022-11-18T05:11:32;5.40;;;2.33;;
29848;SDS011;16728;50.832;5.590;2022-11-18T05:14:52;4.10;;;2.22;;
29848;SDS011;16728;50.832;5.590;2022-11-18T05:17:54;6.28;;;2.40;;
29848;SDS011;16728;50.832;5.590;2022-11-18T05:20:56;4.18;;;2.08;;
29848;SDS011;16728;50.832;5.590;2022-11-18T05:23:58;4.20;;;2.30;;
29848;SDS011;16728;50.832;5.590;2022-11-18T05:27:00;5.82;;;2.45;;
29848;SDS011;16728;50.832;5.590;2022-11-18T05:30:02;3.63;;;2.20;;
29848;SDS011;16728;50.832;5.590;2022-11-18T05:33:05;6.22;;;2.05;;
29848;SDS011;16728;50.832;5.590;2022-11-18T05:36:08;3.30;;;2.20;;
29848;SDS011;16728;50.832;5.590;2022-11-18T05:39:16;4.00;;;2.42;;
29848;SDS011;16728;50.832;5.590;2022-11-18T05:42:18;6.20;;;2.38;;
29848;SDS011;16728;50.832;5.590;2022-11-18T05:45:39;5.18;;;2.15;;
29848;SDS011;16728;50.832;5.590;2022-11-18T05:48:41;8.95;;;2.75;;
29848;SDS011;16728;50.832;5.590;2022-11-18T05:51:43;8.10;;;2.45;;
29848;SDS011;16728;50.832;5.590;2022-11-18T05:54:47;3.85;;;2.35;;
29848;SDS011;16728;50.832;5.590;2022-11-18T05:57:51;3.35;;;2.30;;
29848;SDS011;16728;50.832;5.590;2022-11-18T06:00:53;7.50;;;2.40;;
29848;SDS011;16728;50.832;5.590;2022-11-18T06:03:58;4.15;;;2.33;;
29848;SDS011;16728;50.832;5.590;2022-11-18T06:07:22;4.97;;;2.25;;
29848;SDS011;16728;50.832;5.590;2022-11-18T06:10:34;4.72;;;2.53;;
29848;SDS011;16728;50.832;5.590;2022-11-18T06:13:39;5.05;;;2.17;;
29848;SDS011;16728;50.832;5.590;2022-11-18T06:16:56;6.47;;;2.30;;
29848;SDS011;16728;50.832;5.590;2022-11-18T06:20:02;3.92;;;2.10;;
29848;SDS011;16728;50.832;5.590;2022-11-18T06:23:05;3.50;;;2.00;;
29848;SDS011;16728;50.832;5.590;2022-11-18T06:26:07;4.97;;;2.40;;
29848;SDS011;16728;50.832;5.590;2022-11-18T06:29:10;4.00;;;2.17;;
29848;SDS011;16728;50.832;5.590;2022-11-18T06:32:14;3.92;;;2.13;;
29848;SDS011;16728;50.832;5.590;2022-11-18T06:35:16;6.53;;;2.38;;
29848;SDS011;16728;50.832;5.590;2022-11-18T06:38:17;9.82;;;2.50;;
29848;SDS011;16728;50.832;5.590;2022-11-18T06:41:19;6.93;;;2.85;;
29848;SDS011;16728;50.832;5.590;2022-11-18T06:44:21;6.78;;;2.40;;
29848;SDS011;16728;50.832;5.590;2022-11-18T06:47:23;4.45;;;2.13;;
29848;SDS011;16728;50.832;5.590;2022-11-18T06:50:25;4.30;;;2.42;;
29848;SDS011;16728;50.832;5.590;2022-11-18T06:53:28;4.32;;;2.08;;
29848;SDS011;16728;50.832;5.590;2022-11-18T06:56:30;6.72;;;2.65;;
29848;SDS011;16728;50.832;5.590;2022-11-18T06:59:32;9.25;;;2.42;;
29848;SDS011;16728;50.832;5.590;2022-11-18T07:02:37;4.35;;;2.28;;
29848;SDS011;16728;50.832;5.590;2022-11-18T07:05:39;7.50;;;2.58;;
29848;SDS011;16728;50.832;5.590;2022-11-18T07:08:41;4.15;;;2.38;;
29848;SDS011;16728;50.832;5.590;2022-11-18T07:11:43;5.18;;;2.00;;
29848;SDS011;16728;50.832;5.590;2022-11-18T07:14:45;6.50;;;2.58;;
29848;SDS011;16728;50.832;5.590;2022-11-18T07:17:47;7.40;;;2.58;;
29848;SDS011;16728;50.832;5.590;2022-11-18T07:20:49;5.70;;;2.60;;
29848;SDS011;16728;50.832;5.590;2022-11-18T07:23:51;6.18;;;2.80;;
29848;SDS011;16728;50.832;5.590;2022-11-18T07:26:53;6.35;;;2.83;;
29848;SDS011;16728;50.832;5.590;2022-11-18T07:29:55;7.82;;;2.60;;
29848;SDS011;16728;50.832;5.590;2022-11-18T07:32:57;4.60;;;2.42;;
29848;SDS011;16728;50.832;5.590;2022-11-18T07:35:59;7.07;;;2.63;;
29848;SDS011;16728;50.832;5.590;2022-11-18T07:39:09;8.30;;;2.50;;
29848;SDS011;16728;50.832;5.590;2022-11-18T07:42:11;10.43;;;2.45;;
29848;SDS011;16728;50.832;5.590;2022-11-18T07:45:12;6.38;;;2.50;;
29848;SDS011;16728;50.832;5.590;2022-11-18T07:48:14;8.27;;;2.80;;
29848;SDS011;16728;50.832;5.590;2022-11-18T07:54:36;8.80;;;2.80;;
29848;SDS011;16728;50.832;5.590;2022-11-18T07:57:38;6.65;;;2.35;;
29848;SDS011;16728;50.832;5.590;2022-11-18T08:00:40;8.18;;;2.92;;
29848;SDS011;16728;50.832;5.590;2022-11-18T08:03:42;6.53;;;2.60;;
29848;SDS011;16728;50.832;5.590;2022-11-18T08:06:45;9.57;;;2.97;;
29848;SDS011;16728;50.832;5.590;2022-11-18T08:09:47;11.20;;;3.35;;
29848;SDS011;16728;50.832;5.590;2022-11-18T08:12:49;8.77;;;3.00;;
29848;SDS011;16728;50.832;5.590;2022-11-18T08:15:51;10.50;;;2.80;;
29848;SDS011;16728;50.832;5.590;2022-11-18T08:18:53;4.97;;;2.42;;
29848;SDS011;16728;50.832;5.590;2022-11-18T08:21:56;7.03;;;2.57;;
29848;SDS011;16728;50.832;5.590;2022-11-18T08:24:58;9.88;;;2.42;;
29848;SDS011;16728;50.832;5.590;2022-11-18T08:28:00;7.85;;;2.20;;
29848;SDS011;16728;50.832;5.590;2022-11-18T08:31:08;5.05;;;2.42;;
29848;SDS011;16728;50.832;5.590;2022-11-18T08:34:14;4.83;;;2.17;;
29848;SDS011;16728;50.832;5.590;2022-11-18T08:37:16;10.15;;;2.55;;
29848;SDS011;16728;50.832;5.590;2022-11-18T08:40:19;10.07;;;2.40;;
29848;SDS011;16728;50.832;5.590;2022-11-18T08:43:21;7.72;;;2.20;;
29848;SDS011;16728;50.832;5.590;2022-11-18T08:46:23;9.70;;;2.25;;
29848;SDS011;16728;50.832;5.590;2022-11-18T08:49:25;7.22;;;2.50;;
29848;SDS011;16728;50.832;5.590;2022-11-18T08:52:33;8.77;;;2.58;;
29848;SDS011;16728;50.832;5.590;2022-11-18T08:55:36;7.35;;;1.95;;
29848;SDS011;16728;50.832;5.590;2022-11-18T08:58:37;10.50;;;2.30;;
29848;SDS011;16728;50.832;5.590;2022-11-18T09:01:39;5.78;;;2.22;;
29848;SDS011;16728;50.832;5.590;2022-11-18T09:04:45;7.15;;;2.38;;
29848;SDS011;16728;50.832;5.590;2022-11-18T09:07:47;10.57;;;2.33;;
29848;SDS011;16728;50.832;5.590;2022-11-18T09:10:49;4.95;;;2.08;;
29848;SDS011;16728;50.832;5.590;2022-11-18T09:13:55;8.57;;;2.40;;
29848;SDS011;16728;50.832;5.590;2022-11-18T09:17:19;8.68;;;2.00;;
29848;SDS011;16728;50.832;5.590;2022-11-18T09:20:21;8.10;;;2.40;;
29848;SDS011;16728;50.832;5.590;2022-11-18T09:23:23;6.65;;;2.25;;
29848;SDS011;16728;50.832;5.590;2022-11-18T09:26:25;6.90;;;2.00;;
29848;SDS011;16728;50.832;5.590;2022-11-18T09:29:27;8.88;;;2.00;;
29848;SDS011;16728;50.832;5.590;2022-11-18T09:32:28;8.45;;;2.30;;
29848;SDS011;16728;50.832;5.590;2022-11-18T09:35:30;4.97;;;1.92;;
29848;SDS011;16728;50.832;5.590;2022-11-18T09:38:34;10.68;;;2.08;;
29848;SDS011;16728;50.832;5.590;2022-11-18T09:41:46;9.60;;;2.10;;
29848;SDS011;16728;50.832;5.590;2022-11-18T09:48:15;8.40;;;2.42;;
29848;SDS011;16728;50.832;5.590;2022-11-18T09:51:20;7.55;;;2.30;;
29848;SDS011;16728;50.832;5.590;2022-11-18T09:54:26;5.50;;;1.95;;
29848;SDS011;16728;50.832;5.590;2022-11-18T09:57:36;7.03;;;1.80;;
29848;SDS011;16728;50.832;5.590;2022-11-18T10:00:40;5.10;;;1.85;;
29848;SDS011;16728;50.832;5.590;2022-11-18T10:03:44;6.90;;;2.60;;
29848;SDS011;16728;50.832;5.590;2022-11-18T10:06:46;6.70;;;2.28;;
29848;SDS011;16728;50.832;5.590;2022-11-18T10:09:50;7.25;;;2.58;;
29848;SDS011;16728;50.832;5.590;2022-11-18T10:13:07;10.15;;;3.97;;
29848;SDS011;16728;50.832;5.590;2022-11-18T10:16:57;11.55;;;2.33;;
29848;SDS011;16728;50.832;5.590;2022-11-18T10:23:23;6.93;;;1.95;;
29848;SDS011;16728;50.832;5.590;2022-11-18T10:26:33;6.32;;;2.15;;
29848;SDS011;16728;50.832;5.590;2022-11-18T10:29:36;6.65;;;2.40;;
29848;SDS011;16728;50.832;5.590;2022-11-18T10:36:10;9.38;;;1.88;;
29848;SDS011;16728;50.832;5.590;2022-11-18T10:39:27;6.28;;;2.08;;
29848;SDS011;16728;50.832;5.590;2022-11-18T10:42:42;6.40;;;1.58;;
29848;SDS011;16728;50.832;5.590;2022-11-18T10:45:48;7.30;;;1.83;;
29848;SDS011;16728;50.832;5.590;2022-11-18T10:52:11;8.18;;;2.30;;
29848;SDS011;16728;50.832;5.590;2022-11-18T10:55:19;8.88;;;1.98;;
29848;SDS011;16728;50.832;5.590;2022-11-18T10:58:23;8.57;;;2.40;;
29848;SDS011;16728;50.832;5.590;2022-11-18T11:01:26;9.90;;;1.90;;
29848;SDS011;16728;50.832;5.590;2022-11-18T11:04:28;7.63;;;1.83;;
29848;SDS011;16728;50.832;5.590;2022-11-18T11:07:34;9.80;;;2.00;;
29848;SDS011;16728;50.832;5.590;2022-11-18T11:10:37;5.78;;;2.00;;
29848;SDS011;16728;50.832;5.590;2022-11-18T11:13:39;6.18;;;2.00;;
29848;SDS011;16728;50.832;5.590;2022-11-18T11:20:15;5.97;;;1.92;;
29848;SDS011;16728;50.832;5.590;2022-11-18T11:23:23;6.10;;;1.73;;
29848;SDS011;16728;50.832;5.590;2022-11-18T11:29:57;7.68;;;1.77;;
29848;SDS011;16728;50.832;5.590;2022-11-18T11:36:47;4.45;;;1.17;;
29848;SDS011;16728;50.832;5.590;2022-11-18T11:40:30;4.47;;;1.55;;
29848;SDS011;16728;50.832;5.590;2022-11-18T11:44:08;9.90;;;1.83;;
29848;SDS011;16728;50.832;5.590;2022-11-18T11:47:46;5.13;;;1.70;;
29848;SDS011;16728;50.832;5.590;2022-11-18T11:54:36;6.80;;;1.47;;
29848;SDS011;16728;50.832;5.590;2022-11-18T11:58:10;7.78;;;1.60;;
29848;SDS011;16728;50.832;5.590;2022-11-18T12:08:15;4.72;;;1.52;;
29848;SDS011;16728;50.832;5.590;2022-11-18T12:11:54;6.07;;;1.63;;
29848;SDS011;16728;50.832;5.590;2022-11-18T12:24:47;4.25;;;1.42;;
29848;SDS011;16728;50.832;5.590;2022-11-18T12:40:36;5.47;;;1.42;;
29848;SDS011;16728;50.832;5.590;2022-11-18T12:44:26;4.88;;;1.50;;
29848;SDS011;16728;50.832;5.590;2022-11-18T12:47:02;6.22;;;1.35;;
29848;SDS011;16728;50.832;5.590;2022-11-18T12:50:06;3.90;;;1.45;;
29848;SDS011;16728;50.832;5.590;2022-11-18T12:53:25;5.20;;;2.03;;
29848;SDS011;16728;50.832;5.590;2022-11-18T12:59:37;4.25;;;1.25;;
29848;SDS011;16728;50.832;5.590;2022-11-18T13:02:39;4.93;;;1.63;;
29848;SDS011;16728;50.832;5.590;2022-11-18T13:05:57;5.07;;;1.17;;
29848;SDS011;16728;50.832;5.590;2022-11-18T13:12:34;4.95;;;1.38;;
29848;SDS011;16728;50.832;5.590;2022-11-18T13:15:40;3.17;;;1.10;;
29848;SDS011;16728;50.832;5.590;2022-11-18T13:19:01;2.42;;;1.00;;
29848;SDS011;16728;50.832;5.590;2022-11-18T13:22:04;6.38;;;1.80;;
29848;SDS011;16728;50.832;5.590;2022-11-18T13:25:36;8.65;;;2.35;;
29848;SDS011;16728;50.832;5.590;2022-11-18T13:35:20;4.40;;;1.60;;
29848;SDS011;16728;50.832;5.590;2022-11-18T13:38:24;5.57;;;1.60;;
29848;SDS011;16728;50.832;5.590;2022-11-18T13:41:29;5.03;;;1.63;;
29848;SDS011;16728;50.832;5.590;2022-11-18T13:44:36;3.80;;;1.80;;
29848;SDS011;16728;50.832;5.590;2022-11-18T13:50:58;6.88;;;2.00;;
29848;SDS011;16728;50.832;5.590;2022-11-18T13:54:01;5.13;;;1.50;;
29848;SDS011;16728;50.832;5.590;2022-11-18T13:57:03;5.88;;;2.25;;
29848;SDS011;16728;50.832;5.590;2022-11-18T14:00:06;5.07;;;1.25;;
29848;SDS011;16728;50.832;5.590;2022-11-18T14:03:24;7.00;;;1.60;;
29848;SDS011;16728;50.832;5.590;2022-11-18T14:06:36;3.05;;;1.40;;
29848;SDS011;16728;50.832;5.590;2022-11-18T14:09:50;6.03;;;1.33;;
29848;SDS011;16728;50.832;5.590;2022-11-18T14:13:11;5.95;;;1.73;;
29848;SDS011;16728;50.832;5.590;2022-11-18T14:16:30;4.25;;;1.42;;
29848;SDS011;16728;50.832;5.590;2022-11-18T14:19:40;4.40;;;1.30;;
29848;SDS011;16728;50.832;5.590;2022-11-18T14:22:43;3.70;;;1.20;;
29848;SDS011;16728;50.832;5.590;2022-11-18T14:25:47;7.53;;;1.70;;
29848;SDS011;16728;50.832;5.590;2022-11-18T14:28:52;6.60;;;1.67;;
29848;SDS011;16728;50.832;5.590;2022-11-18T14:32:14;5.45;;;1.60;;
29848;SDS011;16728;50.832;5.590;2022-11-18T14:35:17;2.90;;;1.52;;
29848;SDS011;16728;50.832;5.590;2022-11-18T14:41:42;5.10;;;1.70;;
29848;SDS011;16728;50.832;5.590;2022-11-18T14:44:47;11.90;;;4.68;;
29848;SDS011;16728;50.832;5.590;2022-11-18T14:47:48;9.27;;;2.67;;
29848;SDS011;16728;50.832;5.590;2022-11-18T14:50:50;14.52;;;4.90;;
29848;SDS011;16728;50.832;5.590;2022-11-18T14:53:52;8.60;;;3.10;;
29848;SDS011;16728;50.832;5.590;2022-11-18T14:56:56;9.82;;;3.40;;
29848;SDS011;16728;50.832;5.590;2022-11-18T15:00:01;13.75;;;6.93;;
29848;SDS011;16728;50.832;5.590;2022-11-18T15:03:05;6.10;;;2.67;;
29848;SDS011;16728;50.832;5.590;2022-11-18T15:06:12;5.97;;;1.63;;
29848;SDS011;16728;50.832;5.590;2022-11-18T15:09:15;4.80;;;2.13;;
29848;SDS011;16728;50.832;5.590;2022-11-18T15:12:17;4.50;;;1.58;;
29848;SDS011;16728;50.832;5.590;2022-11-18T15:15:19;5.00;;;1.73;;
29848;SDS011;16728;50.832;5.590;2022-11-18T15:18:22;6.93;;;2.08;;
29848;SDS011;16728;50.832;5.590;2022-11-18T15:21:25;4.03;;;1.70;;
29848;SDS011;16728;50.832;5.590;2022-11-18T15:24:27;3.57;;;1.60;;
29848;SDS011;16728;50.832;5.590;2022-11-18T15:27:29;5.50;;;2.03;;
29848;SDS011;16728;50.832;5.590;2022-11-18T15:30:31;4.03;;;1.80;;
29848;SDS011;16728;50.832;5.590;2022-11-18T15:33:33;4.28;;;1.38;;
29848;SDS011;16728;50.832;5.590;2022-11-18T15:36:35;8.27;;;1.85;;
29848;SDS011;16728;50.832;5.590;2022-11-18T15:39:36;9.15;;;1.98;;
29848;SDS011;16728;50.832;5.590;2022-11-18T15:42:38;4.55;;;2.30;;
29848;SDS011;16728;50.832;5.590;2022-11-18T15:45:55;4.65;;;2.08;;
29848;SDS011;16728;50.832;5.590;2022-11-18T15:48:58;6.00;;;2.28;;
29848;SDS011;16728;50.832;5.590;2022-11-18T15:52:01;5.68;;;2.03;;
29848;SDS011;16728;50.832;5.590;2022-11-18T15:55:03;6.85;;;2.72;;
29848;SDS011;16728;50.832;5.590;2022-11-18T15:58:08;4.90;;;2.08;;
29848;SDS011;16728;50.832;5.590;2022-11-18T16:01:10;5.55;;;2.35;;
29848;SDS011;16728;50.832;5.590;2022-11-18T16:04:12;7.80;;;2.72;;
29848;SDS011;16728;50.832;5.590;2022-11-18T16:07:17;4.90;;;2.13;;
29848;SDS011;16728;50.832;5.590;2022-11-18T16:10:19;5.25;;;1.98;;
29848;SDS011;16728;50.832;5.590;2022-11-18T16:13:40;12.45;;;2.90;;
29848;SDS011;16728;50.832;5.590;2022-11-18T16:16:42;8.95;;;3.13;;
29848;SDS011;16728;50.832;5.590;2022-11-18T16:19:47;6.53;;;3.00;;
29848;SDS011;16728;50.832;5.590;2022-11-18T16:22:49;9.15;;;2.65;;
29848;SDS011;16728;50.832;5.590;2022-11-18T16:25:52;4.50;;;1.90;;
29848;SDS011;16728;50.832;5.590;2022-11-18T16:28:54;11.60;;;2.75;;
29848;SDS011;16728;50.832;5.590;2022-11-18T16:31:57;4.20;;;2.63;;
29848;SDS011;16728;50.832;5.590;2022-11-18T16:34:58;7.63;;;2.88;;
29848;SDS011;16728;50.832;5.590;2022-11-18T16:38:02;7.30;;;3.22;;
29848;SDS011;16728;50.832;5.590;2022-11-18T16:41:03;8.50;;;2.70;;
29848;SDS011;16728;50.832;5.590;2022-11-18T16:44:26;8.93;;;2.75;;
29848;SDS011;16728;50.832;5.590;2022-11-18T16:47:28;7.00;;;3.03;;
29848;SDS011;16728;50.832;5.590;2022-11-18T16:50:30;10.27;;;3.33;;
29848;SDS011;16728;50.832;5.590;2022-11-18T16:53:32;7.80;;;3.55;;
29848;SDS011;16728;50.832;5.590;2022-11-18T16:56:34;5.13;;;2.95;;
29848;SDS011;16728;50.832;5.590;2022-11-18T16:59:36;6.20;;;3.15;;
29848;SDS011;16728;50.832;5.590;2022-11-18T17:02:38;13.10;;;6.88;;
29848;SDS011;16728;50.832;5.590;2022-11-18T17:05:40;11.73;;;7.00;;
29848;SDS011;16728;50.832;5.590;2022-11-18T17:08:42;18.92;;;9.77;;
29848;SDS011;16728;50.832;5.590;2022-11-18T17:11:44;15.57;;;7.53;;
29848;SDS011;16728;50.832;5.590;2022-11-18T17:14:47;15.75;;;6.78;;
29848;SDS011;16728;50.832;5.590;2022-11-18T17:17:48;12.50;;;6.80;;
29848;SDS011;16728;50.832;5.590;2022-11-18T17:20:50;12.45;;;6.00;;
29848;SDS011;16728;50.832;5.590;2022-11-18T17:23:52;10.45;;;5.40;;
29848;SDS011;16728;50.832;5.590;2022-11-18T17:26:55;7.00;;;3.07;;
29848;SDS011;16728;50.832;5.590;2022-11-18T17:29:57;5.53;;;2.20;;
29848;SDS011;16728;50.832;5.590;2022-11-18T17:32:59;4.30;;;2.05;;
29848;SDS011;16728;50.832;5.590;2022-11-18T17:36:02;4.28;;;2.42;;
29848;SDS011;16728;50.832;5.590;2022-11-18T17:39:09;2.60;;;1.50;;
29848;SDS011;16728;50.832;5.590;2022-11-18T17:42:12;5.50;;;2.17;;
29848;SDS011;16728;50.832;5.590;2022-11-18T17:45:14;3.35;;;2.13;;
29848;SDS011;16728;50.832;5.590;2022-11-18T17:48:15;7.13;;;2.95;;
29848;SDS011;16728;50.832;5.590;2022-11-18T17:51:17;6.55;;;3.33;;
29848;SDS011;16728;50.832;5.590;2022-11-18T17:54:22;6.68;;;2.72;;
29848;SDS011;16728;50.832;5.590;2022-11-18T17:57:24;3.42;;;2.90;;
29848;SDS011;16728;50.832;5.590;2022-11-18T18:00:26;7.95;;;4.75;;
29848;SDS011;16728;50.832;5.590;2022-11-18T18:03:29;6.55;;;3.95;;
29848;SDS011;16728;50.832;5.590;2022-11-18T18:06:31;6.72;;;3.83;;
29848;SDS011;16728;50.832;5.590;2022-11-18T18:09:32;6.63;;;4.40;;
29848;SDS011;16728;50.832;5.590;2022-11-18T18:12:34;6.22;;;4.88;;
29848;SDS011;16728;50.832;5.590;2022-11-18T18:15:59;6.93;;;4.38;;
29848;SDS011;16728;50.832;5.590;2022-11-18T18:19:02;4.78;;;3.42;;
29848;SDS011;16728;50.832;5.590;2022-11-18T18:22:05;5.60;;;3.80;;
29848;SDS011;16728;50.832;5.590;2022-11-18T18:25:07;5.65;;;4.10;;
29848;SDS011;16728;50.832;5.590;2022-11-18T18:28:09;5.88;;;4.30;;
29848;SDS011;16728;50.832;5.590;2022-11-18T18:31:12;7.93;;;4.50;;
29848;SDS011;16728;50.832;5.590;2022-11-18T18:34:15;5.82;;;4.47;;
29848;SDS011;16728;50.832;5.590;2022-11-18T18:37:18;7.97;;;4.78;;
29848;SDS011;16728;50.832;5.590;2022-11-18T18:40:20;7.68;;;4.65;;
29848;SDS011;16728;50.832;5.590;2022-11-18T18:43:22;5.30;;;3.97;;
29848;SDS011;16728;50.832;5.590;2022-11-18T18:46:24;8.13;;;3.40;;
29848;SDS011;16728;50.832;5.590;2022-11-18T18:49:33;5.05;;;3.45;;
29848;SDS011;16728;50.832;5.590;2022-11-18T18:52:35;5.32;;;3.35;;
29848;SDS011;16728;50.832;5.590;2022-11-18T18:55:37;6.10;;;4.05;;
29848;SDS011;16728;50.832;5.590;2022-11-18T18:58:45;5.47;;;4.32;;
29848;SDS011;16728;50.832;5.590;2022-11-18T19:01:47;6.13;;;3.88;;
29848;SDS011;16728;50.832;5.590;2022-11-18T19:04:48;4.30;;;3.25;;
29848;SDS011;16728;50.832;5.590;2022-11-18T19:10:54;6.70;;;3.35;;
29848;SDS011;16728;50.832;5.590;2022-11-18T19:13:59;7.75;;;3.78;;
29848;SDS011;16728;50.832;5.590;2022-11-18T19:17:12;5.82;;;3.70;;
29848;SDS011;16728;50.832;5.590;2022-11-18T19:20:14;6.70;;;4.13;;
29848;SDS011;16728;50.832;5.590;2022-11-18T19:23:36;6.30;;;4.53;;
29848;SDS011;16728;50.832;5.590;2022-11-18T19:26:38;6.65;;;4.43;;
29848;SDS011;16728;50.832;5.590;2022-11-18T19:29:40;5.90;;;3.10;;
29848;SDS011;16728;50.832;5.590;2022-11-18T19:32:41;5.10;;;2.55;;
29848;SDS011;16728;50.832;5.590;2022-11-18T19:35:44;5.28;;;2.58;;
29848;SDS011;16728;50.832;5.590;2022-11-18T19:38:49;5.93;;;3.00;;
29848;SDS011;16728;50.832;5.590;2022-11-18T19:41:51;7.38;;;2.60;;
29848;SDS011;16728;50.832;5.590;2022-11-18T19:44:53;6.05;;;3.03;;
29848;SDS011;16728;50.832;5.590;2022-11-18T19:47:55;10.77;;;5.00;;
29848;SDS011;16728;50.832;5.590;2022-11-18T19:51:02;9.90;;;4.93;;
29848;SDS011;16728;50.832;5.590;2022-11-18T19:54:14;6.65;;;4.03;;
29848;SDS011;16728;50.832;5.590;2022-11-18T19:57:17;7.03;;;3.15;;
29848;SDS011;16728;50.832;5.590;2022-11-18T20:00:19;5.60;;;3.00;;
29848;SDS011;16728;50.832;5.590;2022-11-18T20:03:20;5.30;;;3.22;;
29848;SDS011;16728;50.832;5.590;2022-11-18T20:06:23;3.85;;;2.38;;
29848;SDS011;16728;50.832;5.590;2022-11-18T20:09:26;5.00;;;2.58;;
29848;SDS011;16728;50.832;5.590;2022-11-18T20:12:28;3.60;;;2.47;;
29848;SDS011;16728;50.832;5.590;2022-11-18T20:15:30;3.88;;;2.63;;
29848;SDS011;16728;50.832;5.590;2022-11-18T20:18:32;4.43;;;2.60;;
29848;SDS011;16728;50.832;5.590;2022-11-18T20:21:34;3.35;;;2.28;;
29848;SDS011;16728;50.832;5.590;2022-11-18T20:24:36;4.60;;;2.85;;
29848;SDS011;16728;50.832;5.590;2022-11-18T20:27:37;4.07;;;2.97;;
29848;SDS011;16728;50.832;5.590;2022-11-18T20:30:39;4.45;;;2.50;;
29848;SDS011;16728;50.832;5.590;2022-11-18T20:33:42;6.00;;;2.47;;
29848;SDS011;16728;50.832;5.590;2022-11-18T20:36:48;4.20;;;2.97;;